createdAt,value
2019-03-23T00:00:57.878Z,77.67
2019-03-23T00:01:57.910Z,77.47
2019-03-23T00:02:57.872Z,77.67
2019-03-23T00:03:57.864Z,77.67
2019-03-23T00:04:57.838Z,76.65
2019-03-23T00:05:57.846Z,76.44
2019-03-23T00:06:57.880Z,76.72
2019-03-23T00:07:57.817Z,76.34
2019-03-23T00:08:57.817Z,75.82
2019-03-23T00:09:58.757Z,75.89
2019-03-23T00:10:57.778Z,75.62
2019-03-23T00:11:57.807Z,75.48
2019-03-23T00:12:57.794Z,75.07
2019-03-23T00:13:57.735Z,75.18
2019-03-23T00:14:57.725Z,75.38
2019-03-23T00:15:57.751Z,74.46
2019-03-23T00:16:57.743Z,74.46
2019-03-23T00:17:57.685Z,74.22
2019-03-23T00:18:57.729Z,74.22
2019-03-23T00:19:57.686Z,73.91
2019-03-23T00:20:57.681Z,74.02
2019-03-23T00:21:57.690Z,74.02
2019-03-23T00:22:57.688Z,73.91
2019-03-23T00:23:57.646Z,74.11
2019-03-23T00:24:57.634Z,73.95
2019-03-23T00:25:57.638Z,74.05
2019-03-23T00:26:57.628Z,73.81
2019-03-23T00:27:57.649Z,74.56
2019-03-23T00:28:57.657Z,74.36
2019-03-23T00:29:57.568Z,74.15
2019-03-23T00:30:57.559Z,74.32
2019-03-23T00:31:57.549Z,74.15
2019-03-23T00:32:57.550Z,74.46
2019-03-23T00:33:57.552Z,74.43
2019-03-23T00:34:57.594Z,74.46
2019-03-23T00:35:57.514Z,74.46
2019-03-23T00:36:57.495Z,75.48
2019-03-23T00:37:57.464Z,75.07
2019-03-23T00:38:57.473Z,75.07
2019-03-23T00:39:57.516Z,75.07
2019-03-23T00:40:57.477Z,75.31
2019-03-23T00:41:57.427Z,75.21
2019-03-23T00:42:57.427Z,75.11
2019-03-23T00:43:57.477Z,75.11
2019-03-23T00:44:57.428Z,75.42
2019-03-23T00:45:57.401Z,75.52
2019-03-23T00:46:57.382Z,75.11
2019-03-23T00:47:57.424Z,75.31
2019-03-23T00:48:57.392Z,75.42
2019-03-23T00:49:57.383Z,75.11
2019-03-23T00:50:57.321Z,75.11
2019-03-23T00:51:57.316Z,75.21
2019-03-23T00:52:57.415Z,75.21
2019-03-23T00:53:57.366Z,75.42
2019-03-23T00:54:57.326Z,74.08
2019-03-23T00:55:57.333Z,74.19
2019-03-23T00:56:57.297Z,74.19
2019-03-23T00:57:57.314Z,73.98
2019-03-23T00:58:57.267Z,74.29
2019-03-23T00:59:57.267Z,73.88
2019-03-23T01:00:57.228Z,73.47
2019-03-23T01:01:57.237Z,73.88
2019-03-23T01:02:57.272Z,73.44
2019-03-23T01:03:57.198Z,73.78
2019-03-23T01:04:57.207Z,73.78
2019-03-23T01:05:57.182Z,73.78
2019-03-23T01:06:57.194Z,73.57
2019-03-23T01:07:57.247Z,73.88
2019-03-23T01:08:57.140Z,73.78
2019-03-23T01:09:57.158Z,73.98
2019-03-23T01:10:57.100Z,73.47
2019-03-23T01:11:57.106Z,73.98
2019-03-23T01:12:57.116Z,74.08
2019-03-23T01:13:57.108Z,74.70
2019-03-23T01:14:57.095Z,74.39
2019-03-23T01:15:57.064Z,74.49
2019-03-23T01:16:57.063Z,75.45
2019-03-23T01:17:57.078Z,75.35
2019-03-23T01:18:57.020Z,75.35
2019-03-23T01:19:57.047Z,75.31
2019-03-23T01:20:57.003Z,75.04
2019-03-23T01:21:56.999Z,75.35
2019-03-23T01:22:57.003Z,75.45
2019-03-23T01:23:56.971Z,75.35
2019-03-23T01:24:56.983Z,75.66
2019-03-23T01:25:57.003Z,76.48
2019-03-23T01:26:56.936Z,76.68
2019-03-23T01:27:56.959Z,77.71
2019-03-23T01:28:56.943Z,77.29
2019-03-23T01:29:56.909Z,77.44
2019-03-23T01:30:56.927Z,77.40
2019-03-23T01:31:56.906Z,77.54
2019-03-23T01:32:56.917Z,76.41
2019-03-23T01:33:56.862Z,77.03
2019-03-23T01:34:56.879Z,77.74
2019-03-23T01:35:56.847Z,77.44
2019-03-23T01:37:02.747Z,77.13
2019-03-23T01:37:57.816Z,77.54
2019-03-23T01:38:56.819Z,77.95
2019-03-23T01:39:56.810Z,78.09
2019-03-23T01:40:56.788Z,78.25
2019-03-23T01:41:56.783Z,78.09
2019-03-23T01:42:56.784Z,78.70
2019-03-23T01:43:56.763Z,79.25
2019-03-23T01:44:56.724Z,79.22
2019-03-23T01:45:56.756Z,79.93
2019-03-23T01:46:56.744Z,80.79
2019-03-23T01:47:56.741Z,80.58
2019-03-23T01:48:56.715Z,81.41
2019-03-23T01:49:56.660Z,81.55
2019-03-23T01:50:56.676Z,82.17
2019-03-23T01:51:56.667Z,81.86
2019-03-23T01:52:56.675Z,83.13
2019-03-23T01:53:56.645Z,82.82
2019-03-23T01:54:56.637Z,82.92
2019-03-23T01:55:56.641Z,83.27
2019-03-23T01:56:56.608Z,82.82
2019-03-23T01:57:56.670Z,83.17
2019-03-23T01:58:56.586Z,83.68
2019-03-23T01:59:56.582Z,84.44
2019-03-23T02:00:56.579Z,84.54
2019-03-23T02:01:56.592Z,84.85
2019-03-23T02:02:56.571Z,84.64
2019-03-23T02:03:56.548Z,85.26
2019-03-23T02:04:56.526Z,84.89
2019-03-23T02:05:56.515Z,84.89
2019-03-23T02:06:56.544Z,84.89
2019-03-23T02:07:56.523Z,84.62
2019-03-23T02:08:56.479Z,85.14
2019-03-23T02:09:56.461Z,85.14
2019-03-23T02:10:56.708Z,85.44
2019-03-23T02:11:56.432Z,85.79
2019-03-23T02:12:56.421Z,85.75
2019-03-23T02:13:56.450Z,85.34
2019-03-23T02:14:56.398Z,86.10
2019-03-23T02:15:56.372Z,86.10
2019-03-23T02:16:56.418Z,85.69
2019-03-23T02:17:56.375Z,86.00
2019-03-23T02:18:56.395Z,85.49
2019-03-23T02:19:56.352Z,86.10
2019-03-23T02:20:56.335Z,86.00
2019-03-23T02:21:56.327Z,86.61
2019-03-23T02:22:56.341Z,86.52
2019-03-23T02:23:56.327Z,86.76
2019-03-23T02:24:56.300Z,87.48
2019-03-23T02:25:56.300Z,86.97
2019-03-23T02:26:56.290Z,86.76
2019-03-23T02:27:56.304Z,86.97
2019-03-23T02:28:56.251Z,87.03
2019-03-23T02:29:56.238Z,86.76
2019-03-23T02:30:56.252Z,87.24
2019-03-23T02:31:56.267Z,87.03
2019-03-23T02:32:56.232Z,87.13
2019-03-23T02:33:56.280Z,86.61
2019-03-23T02:34:56.207Z,86.55
2019-03-23T02:35:56.206Z,86.72
2019-03-23T02:36:56.191Z,87.07
2019-03-23T02:37:56.218Z,86.97
2019-03-23T02:38:56.160Z,87.07
2019-03-23T02:39:56.160Z,87.07
2019-03-23T02:40:56.148Z,86.97
2019-03-23T02:41:56.224Z,87.17
2019-03-23T02:42:56.174Z,86.97
2019-03-23T02:43:56.081Z,86.93
2019-03-23T02:44:56.073Z,87.38
2019-03-23T02:45:56.101Z,87.13
2019-03-23T02:46:56.045Z,86.52
2019-03-23T02:47:56.225Z,86.72
2019-03-23T02:48:56.009Z,86.82
2019-03-23T02:49:56.007Z,86.61
2019-03-23T02:50:56.010Z,86.52
2019-03-23T02:51:56.020Z,87.13
2019-03-23T02:52:56.053Z,86.93
2019-03-23T02:53:56.065Z,87.24
2019-03-23T02:54:55.958Z,87.13
2019-03-23T02:55:55.970Z,87.13
2019-03-23T02:56:55.968Z,86.61
2019-03-23T02:57:55.961Z,86.52
2019-03-23T02:58:55.911Z,87.44
2019-03-23T02:59:55.900Z,87.34
2019-03-23T03:02:19.294Z,86.41
2019-03-23T03:03:19.457Z,86.10
2019-03-23T03:04:19.193Z,85.63
2019-03-23T03:05:19.183Z,85.49
2019-03-23T03:06:19.177Z,85.52
2019-03-23T03:07:19.159Z,86.39
2019-03-23T03:08:19.181Z,86.60
2019-03-23T03:09:19.165Z,87.11
2019-03-23T03:10:19.138Z,87.01
2019-03-23T03:11:19.097Z,86.70
2019-03-23T03:12:19.111Z,86.39
2019-03-23T03:13:19.122Z,86.29
2019-03-23T03:14:19.082Z,86.90
2019-03-23T03:15:19.110Z,86.80
2019-03-23T03:16:19.060Z,87.26
2019-03-23T03:17:19.050Z,87.35
2019-03-23T03:18:19.035Z,87.05
2019-03-23T03:19:19.054Z,87.35
2019-03-23T03:20:19.014Z,86.94
2019-03-23T03:21:19.074Z,87.15
2019-03-23T03:22:18.978Z,86.94
2019-03-23T03:23:18.986Z,87.15
2019-03-23T03:24:18.967Z,87.21
2019-03-23T03:25:18.987Z,87.11
2019-03-23T03:26:18.952Z,87.46
2019-03-23T03:27:18.948Z,86.80
2019-03-23T03:28:18.957Z,86.70
2019-03-23T03:29:18.914Z,86.08
2019-03-23T03:30:18.899Z,85.63
2019-03-23T03:31:21.864Z,85.83
2019-03-23T03:32:18.959Z,85.31
2019-03-23T03:33:18.877Z,85.11
2019-03-23T03:34:18.910Z,85.22
2019-03-23T03:35:18.858Z,85.01
2019-03-23T03:36:18.847Z,84.70
2019-03-23T03:37:18.825Z,84.80
2019-03-23T03:38:18.870Z,84.01
2019-03-23T03:39:18.806Z,83.91
2019-03-23T03:40:18.787Z,84.12
2019-03-23T03:41:18.778Z,85.09
2019-03-23T03:42:18.851Z,85.05
2019-03-23T03:43:18.746Z,84.64
2019-03-23T03:44:18.782Z,84.78
2019-03-23T03:45:19.363Z,85.71
2019-03-23T03:46:18.732Z,85.71
2019-03-23T03:47:18.742Z,85.50
2019-03-23T03:48:18.710Z,85.91
2019-03-23T03:49:18.723Z,85.67
2019-03-23T03:50:18.698Z,85.09
2019-03-23T03:51:18.691Z,85.71
2019-03-23T03:52:18.682Z,85.39
2019-03-23T03:53:18.637Z,85.91
2019-03-23T03:54:18.691Z,85.81
2019-03-23T03:55:18.625Z,86.02
2019-03-23T03:56:18.618Z,85.50
2019-03-23T03:57:18.609Z,86.22
2019-03-23T03:58:18.595Z,86.32
2019-03-23T03:59:18.617Z,86.22
2019-03-23T04:00:18.567Z,86.74
2019-03-23T04:01:18.561Z,86.63
2019-03-23T04:02:18.546Z,86.43
2019-03-23T04:03:18.531Z,86.12
2019-03-23T04:04:18.584Z,86.02
2019-03-23T04:05:18.493Z,85.67
2019-03-23T04:06:18.552Z,85.77
2019-03-23T04:07:18.542Z,85.67
2019-03-23T04:08:18.503Z,85.36
2019-03-23T04:09:18.536Z,85.57
2019-03-23T04:10:18.494Z,85.67
2019-03-23T04:11:18.493Z,85.25
2019-03-23T04:12:18.441Z,85.87
2019-03-23T04:13:18.446Z,85.25
2019-03-23T04:14:18.496Z,85.25
2019-03-23T04:15:18.478Z,85.22
2019-03-23T04:16:18.411Z,85.36
2019-03-23T04:17:18.364Z,85.22
2019-03-23T04:18:18.401Z,83.98
2019-03-23T04:19:18.405Z,84.12
2019-03-23T04:20:18.371Z,83.98
2019-03-23T04:21:18.364Z,83.98
2019-03-23T04:22:18.338Z,83.87
2019-03-23T04:23:18.842Z,83.87
2019-03-23T04:24:18.366Z,83.50
2019-03-23T04:25:18.374Z,83.87
2019-03-23T04:26:18.306Z,83.56
2019-03-23T04:27:18.279Z,83.26
2019-03-23T04:28:18.266Z,83.19
2019-03-23T04:29:18.232Z,83.61
2019-03-23T04:30:18.348Z,83.91
2019-03-23T04:31:18.231Z,83.81
2019-03-23T04:32:18.217Z,84.22
2019-03-23T04:33:18.236Z,84.01
2019-03-23T04:34:18.223Z,84.12
2019-03-23T04:35:18.182Z,83.91
2019-03-23T04:36:18.173Z,84.01
2019-03-23T04:37:18.170Z,84.22
2019-03-23T04:38:22.899Z,84.01
2019-03-23T04:39:19.172Z,84.01
2019-03-23T04:40:18.122Z,84.01
2019-03-23T04:41:18.126Z,84.22
2019-03-23T04:42:18.115Z,84.12
2019-03-23T04:43:18.127Z,84.29
2019-03-23T04:44:18.098Z,83.87
2019-03-23T04:45:18.068Z,83.56
2019-03-23T04:46:18.040Z,83.87
2019-03-23T04:47:18.064Z,83.26
2019-03-23T04:48:18.066Z,83.63
2019-03-23T04:49:18.028Z,83.56
2019-03-23T04:50:18.052Z,82.95
2019-03-23T04:51:20.840Z,83.56
2019-03-23T04:52:17.969Z,83.67
2019-03-23T04:53:18.034Z,83.36
2019-03-23T04:54:18.026Z,83.67
2019-03-23T04:55:17.958Z,83.36
2019-03-23T04:56:17.974Z,83.67
2019-03-23T04:57:17.967Z,83.87
2019-03-23T04:58:17.936Z,83.22
2019-03-23T04:59:17.977Z,82.81
2019-03-23T05:00:17.934Z,83.42
2019-03-23T05:01:17.884Z,83.63
2019-03-23T05:02:17.907Z,83.01
2019-03-23T05:03:17.894Z,83.01
2019-03-23T05:04:17.957Z,82.50
2019-03-23T05:05:17.853Z,82.81
2019-03-23T05:06:17.838Z,82.84
2019-03-23T05:07:17.831Z,82.70
2019-03-23T05:08:17.838Z,82.70
2019-03-23T05:09:17.826Z,83.01
2019-03-23T05:10:17.790Z,82.81
2019-03-23T05:11:17.798Z,82.50
2019-03-23T05:12:17.792Z,82.29
2019-03-23T05:13:17.755Z,82.81
2019-03-23T05:14:17.792Z,83.01
2019-03-23T05:15:17.743Z,82.70
2019-03-23T05:16:17.730Z,82.91
2019-03-23T05:17:17.741Z,83.01
2019-03-23T05:18:17.717Z,82.70
2019-03-23T05:19:17.731Z,83.22
2019-03-23T05:20:17.735Z,83.01
2019-03-23T05:21:17.667Z,82.60
2019-03-23T05:22:17.633Z,81.77
2019-03-23T05:23:17.673Z,82.50
2019-03-23T05:24:17.666Z,82.29
2019-03-23T05:25:17.627Z,82.46
2019-03-23T05:26:17.648Z,82.29
2019-03-23T05:27:17.606Z,82.40
2019-03-23T05:28:17.608Z,82.29
2019-03-23T05:29:17.652Z,82.60
2019-03-23T05:30:17.590Z,82.97
2019-03-23T05:31:17.560Z,82.50
2019-03-23T05:32:17.776Z,82.35
2019-03-23T05:33:17.535Z,82.19
2019-03-23T05:34:17.548Z,82.40
2019-03-23T05:35:17.527Z,82.40
2019-03-23T05:36:20.314Z,82.97
2019-03-23T05:37:17.506Z,82.91
2019-03-23T05:38:17.528Z,82.91
2019-03-23T05:39:17.526Z,82.81
2019-03-23T05:40:17.481Z,82.46
2019-03-23T05:41:17.471Z,82.09
2019-03-23T05:42:17.433Z,82.25
2019-03-23T05:43:17.434Z,82.15
2019-03-23T05:44:17.495Z,82.97
2019-03-23T05:45:17.424Z,81.84
2019-03-23T05:46:17.395Z,82.60
2019-03-23T05:47:17.416Z,82.46
2019-03-23T05:48:17.416Z,82.46
2019-03-23T05:49:17.387Z,82.67
2019-03-23T05:50:17.367Z,82.46
2019-03-23T05:51:17.341Z,82.67
2019-03-23T05:52:17.344Z,82.15
2019-03-23T05:53:17.337Z,82.46
2019-03-23T05:54:17.349Z,82.05
2019-03-23T05:55:17.338Z,81.43
2019-03-23T05:56:17.313Z,82.01
2019-03-23T05:57:19.752Z,81.53
2019-03-23T05:58:17.307Z,81.84
2019-03-23T05:59:17.254Z,81.60
2019-03-23T06:00:17.234Z,82.11
2019-03-23T06:01:17.273Z,81.84
2019-03-23T06:02:17.202Z,81.84
2019-03-23T06:03:17.252Z,82.35
2019-03-23T06:04:17.233Z,82.35
2019-03-23T06:05:17.164Z,82.42
2019-03-23T06:06:17.158Z,81.95
2019-03-23T06:07:17.142Z,82.15
2019-03-23T06:08:17.135Z,82.46
2019-03-23T06:09:17.168Z,82.05
2019-03-23T06:10:17.138Z,82.35
2019-03-23T06:11:17.113Z,82.46
2019-03-23T06:12:17.785Z,83.18
2019-03-23T06:13:17.067Z,82.46
2019-03-23T06:14:17.101Z,82.42
2019-03-23T06:15:17.096Z,82.46
2019-03-23T06:16:17.969Z,81.84
2019-03-23T06:17:17.039Z,82.32
2019-03-23T06:18:17.004Z,82.32
2019-03-23T06:19:17.050Z,82.01
2019-03-23T06:20:17.005Z,82.01
2019-03-23T06:21:17.802Z,82.11
2019-03-23T06:22:16.973Z,82.11
2019-03-23T06:23:16.955Z,81.81
2019-03-23T06:24:16.939Z,82.32
2019-03-23T06:25:16.981Z,81.70
2019-03-23T06:26:16.935Z,82.01
2019-03-23T06:27:16.917Z,81.63
2019-03-23T06:28:17.838Z,82.01
2019-03-23T06:29:16.927Z,82.42
2019-03-23T06:30:16.917Z,82.11
2019-03-23T06:31:16.857Z,81.60
2019-03-23T06:32:16.871Z,82.05
2019-03-23T06:33:16.838Z,82.21
2019-03-23T06:34:16.907Z,82.32
2019-03-23T06:35:16.832Z,82.42
2019-03-23T06:36:16.803Z,81.81
2019-03-23T06:37:16.836Z,82.11
2019-03-23T06:38:16.803Z,81.49
2019-03-23T06:39:16.799Z,82.32
2019-03-23T06:40:16.774Z,82.32
2019-03-23T06:41:16.748Z,81.91
2019-03-23T06:42:17.305Z,82.11
2019-03-23T06:43:16.749Z,82.32
2019-03-23T06:44:18.399Z,81.87
2019-03-23T06:45:16.715Z,82.32
2019-03-23T06:46:16.710Z,82.28
2019-03-23T06:47:16.695Z,82.18
2019-03-23T06:48:16.688Z,81.97
2019-03-23T06:49:16.876Z,81.97
2019-03-23T06:50:16.647Z,81.67
2019-03-23T06:51:16.634Z,81.60
2019-03-23T06:52:16.650Z,81.67
2019-03-23T06:53:16.625Z,81.76
2019-03-23T06:54:16.653Z,81.35
2019-03-23T06:55:16.629Z,81.56
2019-03-23T06:56:18.334Z,81.35
2019-03-23T06:57:16.614Z,81.56
2019-03-23T06:58:16.652Z,81.46
2019-03-23T06:59:16.615Z,81.39
2019-03-23T07:00:16.613Z,81.87
2019-03-23T07:01:16.536Z,81.87
2019-03-23T07:02:16.529Z,81.97
2019-03-23T07:03:16.618Z,81.87
2019-03-23T07:04:16.543Z,81.87
2019-03-23T07:05:16.532Z,81.76
2019-03-23T07:06:16.479Z,81.25
2019-03-23T07:07:16.474Z,81.35
2019-03-23T07:08:16.444Z,81.35
2019-03-23T07:09:16.703Z,81.67
2019-03-23T07:10:16.493Z,81.21
2019-03-23T07:11:16.435Z,81.11
2019-03-23T07:12:16.413Z,81.01
2019-03-23T07:13:16.436Z,80.70
2019-03-23T07:14:16.424Z,80.77
2019-03-23T07:15:20.405Z,80.56
2019-03-23T07:16:16.396Z,80.77
2019-03-23T07:17:16.363Z,80.66
2019-03-23T07:18:16.349Z,80.25
2019-03-23T07:19:16.339Z,80.25
2019-03-23T07:20:16.567Z,79.84
2019-03-23T07:21:16.338Z,80.25
2019-03-23T07:22:16.318Z,80.46
2019-03-23T07:23:16.330Z,80.35
2019-03-23T07:24:16.280Z,80.21
2019-03-23T07:25:16.278Z,80.15
2019-03-23T07:26:16.324Z,79.80
2019-03-23T07:27:16.285Z,79.91
2019-03-23T07:28:16.286Z,80.01
2019-03-23T07:29:16.290Z,80.01
2019-03-23T07:30:16.255Z,79.80
2019-03-23T07:31:16.256Z,79.49
2019-03-23T07:32:16.214Z,79.19
2019-03-23T07:33:16.216Z,78.88
2019-03-23T07:34:16.231Z,78.98
2019-03-23T07:35:16.253Z,79.15
2019-03-23T07:36:16.170Z,79.15
2019-03-23T07:37:16.168Z,78.43
2019-03-23T07:38:16.157Z,79.05
2019-03-23T07:39:26.438Z,79.15
2019-03-23T07:40:17.114Z,79.15
2019-03-23T07:41:16.800Z,79.15
2019-03-23T07:42:16.094Z,79.15
2019-03-23T07:43:16.093Z,78.94
2019-03-23T07:44:16.108Z,78.85
2019-03-23T07:45:16.109Z,78.53
2019-03-23T07:46:16.108Z,78.85
2019-03-23T07:47:16.013Z,79.05
2019-03-23T07:48:16.023Z,78.64
2019-03-23T07:49:16.025Z,78.85
2019-03-23T07:50:16.077Z,78.85
2019-03-23T07:51:16.017Z,78.53
2019-03-23T07:52:15.998Z,78.85
2019-03-23T07:53:15.959Z,78.43
2019-03-23T07:54:15.946Z,78.64
2019-03-23T07:55:16.005Z,78.53
2019-03-23T07:56:15.928Z,78.33
2019-03-23T07:57:15.921Z,78.53
2019-03-23T07:58:15.891Z,78.33
2019-03-23T07:59:15.932Z,78.43
2019-03-23T08:00:15.977Z,78.29
2019-03-23T08:01:15.905Z,78.29
2019-03-23T08:02:15.876Z,78.39
2019-03-23T08:03:16.080Z,78.19
2019-03-23T08:04:15.863Z,77.98
2019-03-23T08:05:15.889Z,77.47
2019-03-23T08:06:15.875Z,77.47
2019-03-23T08:07:15.808Z,78.19
2019-03-23T08:08:15.811Z,78.19
2019-03-23T08:09:20.745Z,78.19
2019-03-23T08:10:16.756Z,78.19
2019-03-23T08:11:15.825Z,77.98
2019-03-23T08:12:15.783Z,77.98
2019-03-23T08:13:15.884Z,78.09
2019-03-23T08:14:15.790Z,77.78
2019-03-23T08:15:15.741Z,77.98
2019-03-23T08:16:15.724Z,77.58
2019-03-23T08:17:15.760Z,77.58
2019-03-23T08:18:15.716Z,77.98
2019-03-23T08:19:15.691Z,77.26
2019-03-23T08:20:15.771Z,77.26
2019-03-23T08:21:15.721Z,77.58
2019-03-23T08:22:15.674Z,77.26
2019-03-23T08:23:15.660Z,77.37
2019-03-23T08:24:15.635Z,77.06
2019-03-23T08:25:15.663Z,77.33
2019-03-23T08:26:16.269Z,77.17
2019-03-23T08:27:15.588Z,77.64
2019-03-23T08:28:15.606Z,77.23
2019-03-23T08:29:15.589Z,77.33
2019-03-23T08:30:15.618Z,77.23
2019-03-23T08:31:15.572Z,77.23
2019-03-23T08:32:15.566Z,77.33
2019-03-23T08:33:15.580Z,77.23
2019-03-23T08:34:15.583Z,77.44
2019-03-23T08:35:15.515Z,77.33
2019-03-23T08:36:15.577Z,77.64
2019-03-23T08:37:15.518Z,77.03
2019-03-23T08:38:15.493Z,77.84
2019-03-23T08:39:15.471Z,77.74
2019-03-23T08:40:15.494Z,77.74
2019-03-23T08:41:15.453Z,77.03
2019-03-23T08:42:15.459Z,76.41
2019-03-23T08:43:15.437Z,77.03
2019-03-23T08:44:15.411Z,76.78
2019-03-23T08:45:15.444Z,76.68
2019-03-23T08:46:15.412Z,76.27
2019-03-23T08:47:15.360Z,76.48
2019-03-23T08:48:15.345Z,76.07
2019-03-23T08:49:15.355Z,76.17
2019-03-23T08:50:15.405Z,75.76
2019-03-23T08:51:15.357Z,75.56
2019-03-23T08:52:15.325Z,75.62
2019-03-23T08:53:15.334Z,75.56
2019-03-23T08:54:15.331Z,75.52
2019-03-23T08:55:15.394Z,75.52
2019-03-23T08:56:15.304Z,74.94
2019-03-23T08:57:15.278Z,75.11
2019-03-23T08:58:15.260Z,75.31
2019-03-23T08:59:15.230Z,75.21
2019-03-23T09:00:15.283Z,75.11
2019-03-23T09:01:15.810Z,74.90
2019-03-23T09:02:15.284Z,74.87
2019-03-23T09:03:15.222Z,75.18
2019-03-23T09:04:15.204Z,75.18
2019-03-23T09:05:15.254Z,75.07
2019-03-23T09:06:15.172Z,75.28
2019-03-23T09:07:15.151Z,74.36
2019-03-23T09:08:15.754Z,74.46
2019-03-23T09:09:15.145Z,73.95
2019-03-23T09:10:15.164Z,75.18
2019-03-23T09:11:20.368Z,75.38
2019-03-23T09:12:16.184Z,75.38
2019-03-23T09:13:15.118Z,75.38
2019-03-23T09:14:15.076Z,75.24
2019-03-23T09:15:15.115Z,74.43
2019-03-23T09:16:15.088Z,74.56
2019-03-23T09:17:15.079Z,74.53
2019-03-23T09:18:15.060Z,74.32
2019-03-23T09:19:15.050Z,74.02
2019-03-23T09:20:15.042Z,73.50
2019-03-23T09:21:15.032Z,73.88
2019-03-23T09:22:15.034Z,73.36
2019-03-23T09:23:14.984Z,73.57
2019-03-23T09:24:14.951Z,72.96
2019-03-23T09:25:15.733Z,72.82
2019-03-23T09:26:14.982Z,73.64
2019-03-23T09:27:15.020Z,73.54
2019-03-23T09:28:14.994Z,73.44
2019-03-23T09:29:15.165Z,73.44
2019-03-23T09:30:14.907Z,73.44
2019-03-23T09:31:14.888Z,73.64
2019-03-23T09:32:14.881Z,72.72
2019-03-23T09:33:14.854Z,72.21
2019-03-23T09:34:14.848Z,72.41
2019-03-23T09:35:14.909Z,72.52
2019-03-23T09:36:14.842Z,72.41
2019-03-23T09:37:14.833Z,72.41
2019-03-23T09:38:14.823Z,71.90
2019-03-23T09:39:14.804Z,72.00
2019-03-23T09:40:14.846Z,71.80
2019-03-23T09:41:14.790Z,71.59
2019-03-23T09:42:14.781Z,72.00
2019-03-23T09:43:14.801Z,71.80
2019-03-23T09:44:14.758Z,72.31
2019-03-23T09:45:14.740Z,71.90
2019-03-23T09:46:14.787Z,72.31
2019-03-23T09:47:14.717Z,72.31
2019-03-23T09:48:14.719Z,72.58
2019-03-23T09:49:14.710Z,72.28
2019-03-23T09:50:14.691Z,71.97
2019-03-23T09:51:14.702Z,71.56
2019-03-23T09:52:14.710Z,71.36
2019-03-23T09:53:14.691Z,71.42
2019-03-23T09:54:14.636Z,72.07
2019-03-23T09:55:14.637Z,71.66
2019-03-23T09:56:14.658Z,71.42
2019-03-23T09:57:14.625Z,71.12
2019-03-23T09:58:14.593Z,71.22
2019-03-23T09:59:14.576Z,72.04
2019-03-23T10:00:14.585Z,71.91
2019-03-23T10:01:14.618Z,71.59
2019-03-23T10:02:14.546Z,71.50
2019-03-23T10:03:14.539Z,71.42
2019-03-23T10:04:14.529Z,71.19
2019-03-23T10:05:14.529Z,71.59
2019-03-23T10:06:14.610Z,70.61
2019-03-23T10:07:17.238Z,70.10
2019-03-23T10:08:14.496Z,70.92
2019-03-23T10:09:14.478Z,70.81
2019-03-23T10:10:21.666Z,71.53
2019-03-23T10:11:15.487Z,71.15
2019-03-23T10:12:14.447Z,71.33
2019-03-23T10:13:14.453Z,71.12
2019-03-23T10:14:17.243Z,71.19
2019-03-23T10:15:14.414Z,71.42
2019-03-23T10:16:14.405Z,70.98
2019-03-23T10:17:14.428Z,70.98
2019-03-23T10:18:14.406Z,70.98
2019-03-23T10:19:14.460Z,70.57
2019-03-23T10:20:14.346Z,70.98
2019-03-23T10:21:14.358Z,70.44
2019-03-23T10:22:14.320Z,70.34
2019-03-23T10:23:14.339Z,70.75
2019-03-23T10:24:14.327Z,70.44
2019-03-23T10:25:14.330Z,70.14
2019-03-23T10:26:14.301Z,70.14
2019-03-23T10:27:14.344Z,69.62
2019-03-23T10:28:14.291Z,70.14
2019-03-23T10:29:14.314Z,70.23
2019-03-23T10:30:14.265Z,70.03
2019-03-23T10:31:14.777Z,70.10
2019-03-23T10:32:14.226Z,70.03
2019-03-23T10:33:14.193Z,70.00
2019-03-23T10:34:14.196Z,70.00
2019-03-23T10:35:14.209Z,69.49
2019-03-23T10:36:14.247Z,69.90
2019-03-23T10:37:14.200Z,69.79
2019-03-23T10:38:14.158Z,69.29
2019-03-23T10:39:14.141Z,68.98
2019-03-23T10:40:14.168Z,68.88
2019-03-23T10:41:14.186Z,68.57
2019-03-23T10:42:16.153Z,68.88
2019-03-23T10:43:14.091Z,69.18
2019-03-23T10:44:14.152Z,69.49
2019-03-23T10:45:14.127Z,69.42
2019-03-23T10:46:14.095Z,69.38
2019-03-23T10:47:14.076Z,69.38
2019-03-23T10:48:14.075Z,69.69
2019-03-23T10:49:14.045Z,69.46
2019-03-23T10:50:14.039Z,69.56
2019-03-23T10:51:14.055Z,69.25
2019-03-23T10:52:14.025Z,68.84
2019-03-23T10:53:22.794Z,68.64
2019-03-23T10:54:15.024Z,68.64
2019-03-23T10:55:13.980Z,68.10
2019-03-23T10:56:13.951Z,68.40
2019-03-23T10:57:13.979Z,68.51
2019-03-23T10:58:13.984Z,68.51
2019-03-23T10:59:14.015Z,68.61
2019-03-23T11:00:13.934Z,68.40
2019-03-23T11:01:13.975Z,68.48
2019-03-23T11:02:13.946Z,68.10
2019-03-23T11:03:13.914Z,67.55
2019-03-23T11:04:13.891Z,66.94
2019-03-23T11:05:13.906Z,67.46
2019-03-23T11:06:13.930Z,67.90
2019-03-23T11:07:15.422Z,67.46
2019-03-23T11:08:13.840Z,67.90
2019-03-23T11:09:13.857Z,67.99
2019-03-23T11:10:13.818Z,68.61
2019-03-23T11:11:13.849Z,68.20
2019-03-23T11:12:13.805Z,68.81
2019-03-23T11:13:16.721Z,69.35
2019-03-23T11:14:13.771Z,68.81
2019-03-23T11:15:13.795Z,68.51
2019-03-23T11:16:13.839Z,68.40
2019-03-23T11:17:13.768Z,68.61
2019-03-23T11:18:13.752Z,68.81
2019-03-23T11:19:13.817Z,68.81
2019-03-23T11:20:14.248Z,68.61
2019-03-23T11:21:13.744Z,68.51
2019-03-23T11:22:13.689Z,68.54
2019-03-23T11:23:13.688Z,69.35
2019-03-23T11:24:13.699Z,69.25
2019-03-23T11:25:13.659Z,69.59
2019-03-23T11:26:13.712Z,69.59
2019-03-23T11:27:13.639Z,70.10
2019-03-23T11:28:13.641Z,70.31
2019-03-23T11:29:13.650Z,70.64
2019-03-23T11:30:13.647Z,70.92
2019-03-23T11:31:13.632Z,71.12
2019-03-23T11:32:13.627Z,70.68
2019-03-23T11:33:13.657Z,70.81
2019-03-23T11:34:17.818Z,70.07
2019-03-23T11:35:13.790Z,70.48
2019-03-23T11:36:13.544Z,70.07
2019-03-23T11:37:13.604Z,69.76
2019-03-23T11:38:13.526Z,69.76
2019-03-23T11:39:13.491Z,70.07
2019-03-23T11:40:13.497Z,70.17
2019-03-23T11:41:13.528Z,70.17
2019-03-23T11:42:13.512Z,69.96
2019-03-23T11:43:13.465Z,70.04
2019-03-23T11:44:13.466Z,69.53
2019-03-23T11:45:13.456Z,69.32
2019-03-23T11:46:13.461Z,69.22
2019-03-23T11:47:13.420Z,69.53
2019-03-23T11:48:13.421Z,69.63
2019-03-23T11:49:13.402Z,69.73
2019-03-23T11:50:13.374Z,69.53
2019-03-23T11:51:13.451Z,69.19
2019-03-23T11:52:13.374Z,69.39
2019-03-23T11:53:13.368Z,69.19
2019-03-23T11:54:13.345Z,68.95
2019-03-23T11:55:13.321Z,68.75
2019-03-23T11:56:13.357Z,68.54
2019-03-23T11:57:13.315Z,68.44
2019-03-23T11:58:13.309Z,67.80
2019-03-23T11:59:13.326Z,67.90
2019-03-23T12:00:13.291Z,68.01
2019-03-23T12:01:13.334Z,67.60
2019-03-23T12:02:13.291Z,68.41
2019-03-23T12:03:13.314Z,68.10
2019-03-23T12:04:13.260Z,66.78
2019-03-23T12:05:13.234Z,67.46
2019-03-23T12:06:13.261Z,67.26
2019-03-23T12:07:13.213Z,66.75
2019-03-23T12:08:13.215Z,66.96
2019-03-23T12:09:13.186Z,67.16
2019-03-23T12:10:13.183Z,66.75
2019-03-23T12:11:13.215Z,66.75
2019-03-23T12:12:15.713Z,66.55
2019-03-23T12:13:13.148Z,66.65
2019-03-23T12:14:13.183Z,66.75
2019-03-23T12:15:13.129Z,66.85
2019-03-23T12:16:13.179Z,66.55
2019-03-23T12:17:13.121Z,66.68
2019-03-23T12:18:13.098Z,67.05
2019-03-23T12:19:15.742Z,67.26
2019-03-23T12:20:13.061Z,67.16
2019-03-23T12:21:13.070Z,66.58
2019-03-23T12:22:13.119Z,66.68
2019-03-23T12:23:13.039Z,67.08
2019-03-23T12:24:13.029Z,67.16
2019-03-23T12:25:13.043Z,67.16
2019-03-23T12:26:12.995Z,67.26
2019-03-23T12:27:13.084Z,67.26
2019-03-23T12:28:13.047Z,67.16
2019-03-23T12:29:12.969Z,67.36
2019-03-23T12:30:12.950Z,66.65
2019-03-23T12:31:13.023Z,66.55
2019-03-23T12:32:12.945Z,66.72
2019-03-23T12:33:12.899Z,67.02
2019-03-23T12:34:12.917Z,67.53
2019-03-23T12:35:12.938Z,67.13
2019-03-23T12:36:12.956Z,67.22
2019-03-23T12:37:12.950Z,67.22
2019-03-23T12:38:12.913Z,67.02
2019-03-23T12:39:12.891Z,66.61
2019-03-23T12:40:12.834Z,67.16
2019-03-23T12:41:22.797Z,66.96
2019-03-23T12:42:13.828Z,67.05
2019-03-23T12:43:12.838Z,66.75
2019-03-23T12:44:12.769Z,66.78
2019-03-23T12:45:12.786Z,67.19
2019-03-23T12:46:12.792Z,67.80
2019-03-23T12:47:12.794Z,67.69
2019-03-23T12:48:12.789Z,67.69
2019-03-23T12:49:12.765Z,67.80
2019-03-23T12:50:12.734Z,67.69
2019-03-23T12:51:12.750Z,67.39
2019-03-23T12:52:12.762Z,67.60
2019-03-23T12:53:12.746Z,68.01
2019-03-23T12:54:12.685Z,68.62